Time;durP1;ratioP1;P1;durP2;ratioP2;P2;SDS_P1;SDS_P2;PMS_P1;PMS_P2;Temp;Humidity;BMP_temperature;BMP_pressure;BME280_temperature;BME280_humidity;BME280_pressure;Samples;Min_cycle;Max_cycle;Signal;HPM_P1;HPM_P2
2021/05/16 00:01:41;;;;;;;13.15;4.00;;;11.10;99.90;;;;;;5086138;28;20052;-80
2021/05/16 00:04:08;;;;;;;9.10;3.85;;;11.10;99.90;;;;;;5086266;28;20492;-79
2021/05/16 00:06:34;;;;;;;12.65;3.83;;;11.20;99.90;;;;;;5085947;28;20040;-80
2021/05/16 00:09:01;;;;;;;14.82;4.00;;;11.10;99.90;;;;;;5086496;28;20050;-79
2021/05/16 00:11:27;;;;;;;10.05;3.70;;;11.20;99.90;;;;;;5087855;28;20118;-79
2021/05/16 00:13:54;;;;;;;9.95;3.90;;;11.10;99.90;;;;;;5085236;28;20088;-79
2021/05/16 00:16:21;;;;;;;13.20;4.35;;;11.10;99.90;;;;;;5086187;28;20456;-80
2021/05/16 00:18:47;;;;;;;14.25;4.80;;;11.10;99.90;;;;;;5090511;28;20079;-78
2021/05/16 00:21:14;;;;;;;12.23;4.20;;;11.10;99.90;;;;;;5097132;28;20044;-80
2021/05/16 00:23:41;;;;;;;12.77;3.70;;;11.10;99.90;;;;;;5098817;28;20374;-80
2021/05/16 00:26:08;;;;;;;14.38;4.10;;;11.00;99.90;;;;;;5099309;28;20111;-79
2021/05/16 00:28:35;;;;;;;12.15;3.88;;;11.00;99.90;;;;;;5099189;28;20103;-80
2021/05/16 00:31:01;;;;;;;10.93;4.00;;;11.00;99.90;;;;;;5097072;28;20087;-79
2021/05/16 00:33:28;;;;;;;11.93;4.03;;;11.00;99.90;;;;;;5098267;28;20131;-78
2021/05/16 00:35:54;;;;;;;9.93;4.13;;;11.00;99.90;;;;;;5100043;28;20127;-80
2021/05/16 00:38:21;;;;;;;10.25;3.80;;;11.10;99.90;;;;;;5100612;28;20186;-80
2021/05/16 00:40:48;;;;;;;11.95;3.95;;;11.00;99.90;;;;;;5101028;28;20076;-80
2021/05/16 00:43:14;;;;;;;21.23;4.25;;;11.10;99.90;;;;;;5098522;28;20107;-80
2021/05/16 00:45:45;;;;;;;9.40;3.60;;;11.10;99.90;;;;;;5098632;28;20036;-81
2021/05/16 00:48:12;;;;;;;9.20;4.00;;;11.10;99.90;;;;;;5098185;28;20373;-79
2021/05/16 00:50:40;;;;;;;15.23;3.88;;;11.00;99.90;;;;;;5095098;28;20461;-78
2021/05/16 00:53:08;;;;;;;8.82;3.67;;;11.00;99.90;;;;;;5096144;28;20137;-80
2021/05/16 00:55:35;;;;;;;21.42;4.07;;;11.00;99.90;;;;;;5096206;28;20100;-80
2021/05/16 00:58:03;;;;;;;9.68;3.90;;;11.00;99.90;;;;;;5094985;28;20563;-78
2021/05/16 01:00:32;;;;;;;13.40;4.40;;;10.90;99.90;;;;;;5093339;28;20126;-77
2021/05/16 01:02:59;;;;;;;14.70;4.22;;;10.90;99.90;;;;;;5093169;28;20072;-79
2021/05/16 01:05:25;;;;;;;17.85;4.55;;;10.80;99.90;;;;;;5093007;28;20427;-79
2021/05/16 01:07:52;;;;;;;14.65;4.07;;;10.70;99.90;;;;;;5093661;28;20591;-79
2021/05/16 01:10:19;;;;;;;9.93;3.63;;;10.70;99.90;;;;;;5093792;28;20083;-81
2021/05/16 01:12:50;;;;;;;9.70;4.15;;;10.70;99.90;;;;;;5093913;28;20060;-79
2021/05/16 01:15:19;;;;;;;12.80;4.10;;;10.70;99.90;;;;;;5095502;28;20048;-80
2021/05/16 01:17:46;;;;;;;14.15;3.92;;;10.60;99.90;;;;;;5097724;28;20091;-81
2021/05/16 01:20:15;;;;;;;12.88;4.07;;;10.50;99.90;;;;;;5097738;28;20165;-80
2021/05/16 01:22:43;;;;;;;12.45;3.97;;;10.50;99.90;;;;;;5096762;28;20064;-80
2021/05/16 01:25:10;;;;;;;12.25;3.90;;;10.40;99.90;;;;;;5096694;28;20070;-80
2021/05/16 01:27:37;;;;;;;12.02;3.97;;;10.30;99.90;;;;;;5096390;28;20185;-79
2021/05/16 01:30:06;;;;;;;21.13;5.03;;;10.30;99.90;;;;;;5093460;28;20090;-78
2021/05/16 01:32:33;;;;;;;15.60;4.55;;;10.30;99.90;;;;;;5092663;28;20051;-78
2021/05/16 01:34:59;;;;;;;15.13;4.65;;;10.30;99.90;;;;;;5092979;28;20465;-79
2021/05/16 01:37:26;;;;;;;16.13;4.50;;;10.20;99.90;;;;;;5092228;28;20044;-79
2021/05/16 01:39:53;;;;;;;13.50;4.10;;;10.20;99.90;;;;;;5092268;28;20052;-78
2021/05/16 01:42:21;;;;;;;13.40;4.32;;;10.10;99.90;;;;;;5092626;28;20459;-78
2021/05/16 01:44:48;;;;;;;14.23;4.18;;;10.10;99.90;;;;;;5092942;28;20531;-78
2021/05/16 01:47:14;;;;;;;15.02;4.32;;;10.00;99.90;;;;;;5093357;28;20048;-78
2021/05/16 01:49:43;;;;;;;15.57;4.78;;;10.10;99.90;;;;;;5093044;28;20082;-78
2021/05/16 01:52:11;;;;;;;17.02;4.32;;;10.00;99.90;;;;;;5092728;28;20044;-79
2021/05/16 01:54:38;;;;;;;17.05;4.60;;;10.00;99.90;;;;;;5093972;28;20048;-79
2021/05/16 01:57:07;;;;;;;19.13;4.30;;;9.90;99.90;;;;;;5093477;28;20203;-78
2021/05/16 01:59:35;;;;;;;19.08;4.45;;;9.90;99.90;;;;;;5094562;28;20111;-78
2021/05/16 02:02:03;;;;;;;13.90;4.70;;;9.80;99.90;;;;;;5095338;28;20135;-79
2021/05/16 02:04:31;;;;;;;17.23;4.88;;;9.80;99.90;;;;;;5095251;28;20079;-78
2021/05/16 02:06:59;;;;;;;16.27;4.50;;;9.70;99.90;;;;;;5094270;28;20420;-78
2021/05/16 02:09:26;;;;;;;14.80;4.15;;;9.70;99.90;;;;;;5096550;28;20071;-78
2021/05/16 02:11:52;;;;;;;17.52;4.57;;;9.60;99.90;;;;;;5099508;28;20090;-78
2021/05/16 02:14:24;;;;;;;18.13;4.32;;;9.60;99.90;;;;;;5102004;28;20083;-79
2021/05/16 02:16:50;;;;;;;15.68;4.78;;;9.70;99.90;;;;;;5098544;28;20083;-78
2021/05/16 02:19:17;;;;;;;12.80;4.95;;;9.60;99.90;;;;;;5103158;28;20216;-79
2021/05/16 02:21:43;;;;;;;15.40;4.70;;;9.60;99.90;;;;;;5108644;28;20048;-79
2021/05/16 02:24:10;;;;;;;12.15;4.07;;;9.60;99.90;;;;;;5106970;28;20074;-78
2021/05/16 02:26:36;;;;;;;14.43;4.80;;;9.60;99.90;;;;;;5097807;28;20044;-78
2021/05/16 02:29:03;;;;;;;15.80;4.40;;;9.60;99.90;;;;;;5091715;28;20075;-78
2021/05/16 02:31:30;;;;;;;14.00;5.75;;;9.60;99.90;;;;;;5091855;28;20076;-77
2021/05/16 02:33:57;;;;;;;14.93;4.20;;;9.60;99.90;;;;;;5091846;28;20054;-76
2021/05/16 02:36:23;;;;;;;16.65;4.65;;;9.60;99.90;;;;;;5091530;28;20058;-77
2021/05/16 02:38:50;;;;;;;14.48;4.60;;;9.60;99.90;;;;;;5092145;28;20135;-78
2021/05/16 02:41:16;;;;;;;13.20;4.22;;;9.60;99.90;;;;;;5092128;28;20135;-77
2021/05/16 02:43:43;;;;;;;13.25;4.20;;;9.60;99.90;;;;;;5091561;28;20058;-78
2021/05/16 02:46:10;;;;;;;13.07;4.63;;;9.50;99.90;;;;;;5091744;28;20143;-78
2021/05/16 02:48:38;;;;;;;15.85;4.63;;;9.60;99.90;;;;;;5091663;28;20094;-77
2021/05/16 02:51:05;;;;;;;13.10;4.18;;;9.60;99.90;;;;;;5091707;28;20130;-78
2021/05/16 02:53:31;;;;;;;15.27;4.47;;;9.60;99.90;;;;;;5092037;28;20048;-78
2021/05/16 02:55:58;;;;;;;13.00;4.95;;;9.60;99.90;;;;;;5092430;28;20452;-79
2021/05/16 02:58:24;;;;;;;10.35;4.20;;;9.60;99.90;;;;;;5092514;28;20131;-78
2021/05/16 03:00:51;;;;;;;13.05;5.38;;;9.50;99.90;;;;;;5091955;28;20121;-78
2021/05/16 03:03:17;;;;;;;20.55;4.78;;;9.50;99.90;;;;;;5091966;28;20095;-79
2021/05/16 03:05:44;;;;;;;10.73;4.18;;;9.50;99.90;;;;;;5093170;28;20131;-78
2021/05/16 03:08:11;;;;;;;17.15;4.63;;;9.50;99.90;;;;;;5094662;28;20083;-79
2021/05/16 03:10:37;;;;;;;12.38;5.53;;;9.40;99.90;;;;;;5093355;28;20131;-79
2021/05/16 03:13:04;;;;;;;13.00;4.70;;;9.50;99.90;;;;;;5091729;28;20140;-79
2021/05/16 03:15:31;;;;;;;15.32;5.07;;;9.40;99.90;;;;;;5092063;28;20131;-79
2021/05/16 03:17:57;;;;;;;19.88;6.25;;;9.40;99.90;;;;;;5091318;28;20131;-79
2021/05/16 03:20:23;;;;;;;14.48;6.63;;;9.40;99.90;;;;;;5093633;28;20545;-79
2021/05/16 03:22:51;;;;;;;11.25;5.18;;;9.40;99.90;;;;;;5093639;28;20044;-79
2021/05/16 03:25:18;;;;;;;14.55;4.97;;;9.30;99.90;;;;;;5093466;28;20048;-80
2021/05/16 03:27:44;;;;;;;16.38;5.20;;;9.30;99.90;;;;;;5097184;28;20097;-80
2021/05/16 03:30:12;;;;;;;13.77;5.13;;;9.30;99.90;;;;;;5099381;28;20530;-80
2021/05/16 03:32:41;;;;;;;13.40;5.68;;;9.30;99.90;;;;;;5098425;28;20098;-79
2021/05/16 03:35:08;;;;;;;16.38;5.20;;;9.30;99.90;;;;;;5097290;28;20473;-81
2021/05/16 03:37:34;;;;;;;14.75;5.22;;;9.30;99.90;;;;;;5097758;28;20052;-80
2021/05/16 03:40:03;;;;;;;16.45;5.80;;;9.30;99.90;;;;;;5095516;23;20136;-81
2021/05/16 03:42:29;;;;;;;14.13;5.88;;;9.30;99.90;;;;;;5055171;28;20136;-82
2021/05/16 03:44:56;;;;;;;14.95;5.38;;;9.30;99.90;;;;;;5062605;28;20131;-82
2021/05/16 03:47:22;;;;;;;15.25;6.68;;;9.30;99.90;;;;;;5061604;28;20052;-82
2021/05/16 03:49:48;;;;;;;11.85;5.85;;;9.30;99.90;;;;;;5062148;28;20131;-83
2021/05/16 03:52:19;;;;;;;13.27;5.80;;;9.40;99.90;;;;;;5062167;28;20098;-82
2021/05/16 03:54:45;;;;;;;17.05;6.47;;;9.30;99.90;;;;;;5062561;28;20120;-83
2021/05/16 03:57:13;;;;;;;10.90;5.38;;;9.30;99.90;;;;;;5063123;28;20100;-82
2021/05/16 03:59:40;;;;;;;13.40;5.65;;;9.30;99.90;;;;;;5063196;28;20131;-83
2021/05/16 04:02:06;;;;;;;9.65;5.28;;;9.30;99.90;;;;;;5062281;28;20049;-83
2021/05/16 04:04:33;;;;;;;17.83;5.55;;;9.40;99.90;;;;;;5061688;28;20075;-82
2021/05/16 04:06:59;;;;;;;12.52;5.45;;;9.40;99.90;;;;;;5062686;28;20101;-83
2021/05/16 04:09:25;;;;;;;12.45;6.13;;;9.40;99.90;;;;;;5062879;28;20127;-84
2021/05/16 04:11:52;;;;;;;13.30;5.68;;;9.40;99.90;;;;;;5063024;28;20106;-83
2021/05/16 04:14:21;;;;;;;11.35;5.15;;;9.40;99.90;;;;;;5062461;28;20045;-82
2021/05/16 04:16:48;;;;;;;12.00;5.35;;;9.40;99.90;;;;;;5059441;28;20472;-81
2021/05/16 04:19:14;;;;;;;12.15;4.97;;;9.40;99.90;;;;;;5060377;28;20112;-80
2021/05/16 04:21:40;;;;;;;11.60;4.75;;;9.60;99.90;;;;;;5060647;28;20517;-80
2021/05/16 04:24:08;;;;;;;11.38;5.03;;;9.60;99.90;;;;;;5059864;28;20137;-82
2021/05/16 04:26:34;;;;;;;12.38;4.75;;;9.70;99.90;;;;;;5060672;28;20049;-82
2021/05/16 04:29:01;;;;;;;10.23;4.43;;;9.90;99.90;;;;;;5060807;28;20127;-81
2021/05/16 04:31:29;;;;;;;10.77;4.55;;;10.10;99.90;;;;;;5060339;28;20124;-82
2021/05/16 04:33:55;;;;;;;13.60;4.40;;;10.30;99.90;;;;;;5061350;28;20072;-81
2021/05/16 04:36:22;;;;;;;9.57;4.20;;;10.60;99.90;;;;;;5060731;28;20152;-82
2021/05/16 04:38:48;;;;;;;10.48;4.50;;;10.90;99.90;;;;;;5058705;28;20169;-83
2021/05/16 04:41:15;;;;;;;8.82;4.35;;;11.20;99.90;;;;;;5060284;28;20142;-81
2021/05/16 04:43:41;;;;;;;6.85;3.72;;;11.50;99.90;;;;;;5060168;28;20056;-82
2021/05/16 04:46:08;;;;;;;10.98;4.03;;;11.80;99.90;;;;;;5059126;28;20108;-80
2021/05/16 04:48:35;;;;;;;9.50;4.25;;;12.00;99.90;;;;;;5059117;28;20120;-80
2021/05/16 04:51:01;;;;;;;10.15;4.25;;;12.30;99.90;;;;;;5058981;28;20135;-80
2021/05/16 04:53:29;;;;;;;8.00;3.70;;;12.60;99.90;;;;;;5058680;28;20068;-80
2021/05/16 04:55:55;;;;;;;9.60;4.25;;;12.70;99.90;;;;;;5059399;28;20049;-80
2021/05/16 04:58:23;;;;;;;10.60;4.38;;;12.60;99.90;;;;;;5059684;28;20045;-80
2021/05/16 05:00:49;;;;;;;8.63;4.20;;;12.60;99.90;;;;;;5059675;28;20589;-80
2021/05/16 05:03:16;;;;;;;9.40;4.20;;;12.40;99.90;;;;;;5060348;28;20075;-82
2021/05/16 05:05:43;;;;;;;11.02;4.35;;;12.30;99.90;;;;;;5059709;28;20048;-81
2021/05/16 05:08:11;;;;;;;9.63;4.38;;;12.20;99.90;;;;;;5059129;28;20307;-81
2021/05/16 05:10:37;;;;;;;8.68;4.10;;;12.00;99.90;;;;;;5059604;28;20163;-82
2021/05/16 05:13:04;;;;;;;10.95;4.95;;;12.00;99.90;;;;;;5060534;28;20084;-83
2021/05/16 05:15:30;;;;;;;10.30;4.32;;;11.90;99.90;;;;;;5060866;28;20117;-82
2021/05/16 05:17:57;;;;;;;9.45;4.72;;;11.90;99.90;;;;;;5061252;28;20041;-82
2021/05/16 05:20:24;;;;;;;9.77;4.25;;;12.00;99.90;;;;;;5060463;28;20522;-83
2021/05/16 05:22:53;;;;;;;11.30;4.50;;;12.10;99.90;;;;;;5059671;28;20080;-84
2021/05/16 05:25:19;;;;;;;7.75;3.95;;;12.10;99.90;;;;;;5060304;28;20052;-83
2021/05/16 05:27:45;;;;;;;7.65;4.25;;;12.30;99.90;;;;;;5059848;28;20052;-83
2021/05/16 05:30:13;;;;;;;8.88;4.25;;;12.40;99.90;;;;;;5060669;28;20068;-83
2021/05/16 05:32:39;;;;;;;11.27;4.50;;;12.50;99.90;;;;;;5060639;28;20087;-83
2021/05/16 05:35:07;;;;;;;11.55;4.38;;;12.60;99.90;;;;;;5060617;28;20127;-84
2021/05/16 05:37:33;;;;;;;10.82;4.38;;;12.50;99.90;;;;;;5058459;28;20173;-84
2021/05/16 05:40:00;;;;;;;14.82;4.70;;;12.50;99.90;;;;;;5058740;28;20532;-84
2021/05/16 05:42:27;;;;;;;13.57;4.57;;;12.40;99.90;;;;;;5058947;28;20053;-84
2021/05/16 05:44:53;;;;;;;8.73;4.40;;;12.30;99.90;;;;;;5057820;28;20128;-83
2021/05/16 05:47:20;;;;;;;8.68;4.22;;;12.20;99.90;;;;;;5057039;28;20049;-82
2021/05/16 05:49:46;;;;;;;8.93;4.43;;;12.20;99.90;;;;;;5056091;28;20052;-82
2021/05/16 05:52:12;;;;;;;17.23;5.63;;;12.20;99.90;;;;;;5057914;28;20140;-82
2021/05/16 05:54:39;;;;;;;11.77;4.80;;;12.20;99.90;;;;;;5056419;28;20087;-81
2021/05/16 05:57:06;;;;;;;11.05;4.40;;;12.20;99.90;;;;;;5056337;28;20073;-79
2021/05/16 05:59:33;;;;;;;11.52;6.32;;;12.30;99.90;;;;;;5057199;28;20124;-79
2021/05/16 06:01:59;;;;;;;8.82;4.18;;;12.30;99.90;;;;;;5056521;28;20121;-80
2021/05/16 06:04:26;;;;;;;10.27;4.47;;;12.40;99.90;;;;;;5057011;28;20560;-80
2021/05/16 06:06:52;;;;;;;11.32;4.47;;;12.50;99.90;;;;;;5059144;28;20428;-80
2021/05/16 06:09:19;;;;;;;9.90;4.40;;;12.50;99.90;;;;;;5058076;28;20098;-80
2021/05/16 06:11:45;;;;;;;12.00;4.82;;;12.50;99.90;;;;;;5056446;28;20493;-78
2021/05/16 06:14:12;;;;;;;12.13;5.25;;;12.50;99.90;;;;;;5056346;28;20493;-78
2021/05/16 06:16:39;;;;;;;13.35;4.93;;;12.50;99.90;;;;;;5055344;28;20064;-79
2021/05/16 06:19:06;;;;;;;11.43;4.95;;;12.40;99.90;;;;;;5055138;28;20087;-79
2021/05/16 06:21:32;;;;;;;14.93;5.50;;;12.30;99.90;;;;;;5055204;28;20055;-80
2021/05/16 06:24:05;;;;;;;10.88;5.38;;;12.20;99.90;;;;;;5056724;28;20049;-80
2021/05/16 06:26:32;;;;;;;16.40;5.30;;;12.00;99.90;;;;;;5058330;28;20057;-81
2021/05/16 06:28:59;;;;;;;13.52;5.15;;;11.90;99.90;;;;;;5058447;28;20136;-80
2021/05/16 06:31:26;;;;;;;12.70;5.22;;;11.90;99.90;;;;;;5058214;28;20059;-81
2021/05/16 06:33:52;;;;;;;13.10;5.60;;;11.80;99.90;;;;;;5057969;28;20073;-81
2021/05/16 06:36:19;;;;;;;10.80;5.18;;;11.70;99.90;;;;;;5057618;28;20049;-81
2021/05/16 06:38:46;;;;;;;12.60;5.78;;;11.70;99.90;;;;;;5057951;28;20094;-81
2021/05/16 06:41:12;;;;;;;15.52;5.90;;;11.60;99.90;;;;;;5058178;28;20131;-82
2021/05/16 06:43:38;;;;;;;13.38;5.85;;;11.50;99.90;;;;;;5058416;28;20136;-82
2021/05/16 06:46:05;;;;;;;15.55;5.88;;;11.50;99.90;;;;;;5058068;28;20053;-82
2021/05/16 06:48:32;;;;;;;13.35;5.70;;;11.60;99.90;;;;;;5057533;28;20095;-82
2021/05/16 06:50:58;;;;;;;13.48;5.82;;;11.60;99.90;;;;;;5056691;28;20138;-81
2021/05/16 06:53:25;;;;;;;14.85;5.65;;;11.70;99.90;;;;;;5057135;28;20045;-82
2021/05/16 06:55:51;;;;;;;12.90;5.38;;;11.80;99.90;;;;;;5057374;28;20132;-82
2021/05/16 06:58:17;;;;;;;17.63;5.43;;;11.90;99.90;;;;;;5057568;28;20043;-82
2021/05/16 07:00:45;;;;;;;13.32;5.68;;;12.10;99.90;;;;;;5057687;28;20091;-82
2021/05/16 07:03:11;;;;;;;10.68;4.82;;;12.20;99.90;;;;;;5061081;28;20103;-83
2021/05/16 07:05:39;;;;;;;11.15;4.75;;;12.20;99.90;;;;;;5062330;28;20546;-82
2021/05/16 07:08:05;;;;;;;12.02;4.80;;;12.30;99.90;;;;;;5061902;28;20049;-81
2021/05/16 07:10:32;;;;;;;12.02;4.90;;;12.40;99.90;;;;;;5060551;28;20048;-82
2021/05/16 07:12:59;;;;;;;10.55;4.57;;;12.50;99.90;;;;;;5061004;28;20108;-81
2021/05/16 07:15:26;;;;;;;15.30;5.07;;;12.50;99.90;;;;;;5060676;28;20470;-81
2021/05/16 07:17:52;;;;;;;10.45;4.60;;;12.50;99.90;;;;;;5060502;28;20509;-81
2021/05/16 07:20:19;;;;;;;15.80;6.63;;;12.50;99.90;;;;;;5060820;28;20572;-81
2021/05/16 07:22:46;;;;;;;11.68;5.00;;;12.50;99.90;;;;;;5061245;28;20067;-80
2021/05/16 07:25:14;;;;;;;18.25;6.55;;;12.50;99.90;;;;;;5061264;28;20113;-82
2021/05/16 07:27:40;;;;;;;12.57;4.65;;;12.50;99.90;;;;;;5062268;28;20131;-82
2021/05/16 07:30:08;;;;;;;11.40;5.05;;;12.50;99.90;;;;;;5062250;28;20072;-81
2021/05/16 07:32:34;;;;;;;11.25;4.72;;;12.60;99.90;;;;;;5061971;28;20049;-82
2021/05/16 07:35:00;;;;;;;12.57;5.15;;;12.60;99.90;;;;;;5062123;28;20140;-82
2021/05/16 07:37:27;;;;;;;10.10;4.47;;;12.70;99.90;;;;;;5061605;28;20045;-81
2021/05/16 07:39:54;;;;;;;8.85;4.38;;;12.80;99.90;;;;;;5061286;28;20131;-82
2021/05/16 07:42:21;;;;;;;9.10;3.88;;;12.90;99.90;;;;;;5060300;28;20505;-82
2021/05/16 07:44:47;;;;;;;11.35;4.47;;;12.90;99.90;;;;;;5061171;28;20509;-82
2021/05/16 07:47:13;;;;;;;8.13;4.07;;;13.10;99.90;;;;;;5061550;28;20148;-83
2021/05/16 07:49:40;;;;;;;8.00;3.78;;;13.20;99.90;;;;;;5061576;28;20112;-81
2021/05/16 07:52:06;;;;;;;7.43;3.47;;;13.40;99.90;;;;;;5061419;28;20053;-82
2021/05/16 07:54:33;;;;;;;10.00;3.90;;;13.50;99.90;;;;;;5061849;28;20073;-82
2021/05/16 07:57:01;;;;;;;7.32;3.58;;;13.70;99.90;;;;;;5060281;28;20080;-82
2021/05/16 07:59:27;;;;;;;7.05;2.85;;;13.80;99.90;;;;;;5060585;28;20049;-82
2021/05/16 08:01:53;;;;;;;6.28;3.20;;;14.10;99.90;;;;;;5060886;28;20048;-82
2021/05/16 08:04:20;;;;;;;9.00;3.00;;;14.20;99.90;;;;;;5061378;28;20114;-83
2021/05/16 08:06:46;;;;;;;7.30;3.05;;;14.20;99.90;;;;;;5062073;28;20620;-83
2021/05/16 08:09:12;;;;;;;7.90;3.20;;;14.20;99.90;;;;;;5062683;28;20163;-83
2021/05/16 08:11:39;;;;;;;7.50;4.30;;;14.20;99.90;;;;;;5061512;28;20140;-81
2021/05/16 08:14:06;;;;;;;12.35;3.45;;;14.30;99.90;;;;;;5060963;28;20088;-80
2021/05/16 08:16:34;;;;;;;8.10;3.33;;;14.40;99.90;;;;;;5060263;28;20049;-80
2021/05/16 08:19:01;;;;;;;8.13;3.30;;;14.60;99.90;;;;;;5060409;28;20045;-82
2021/05/16 08:21:27;;;;;;;7.43;2.88;;;14.80;99.90;;;;;;5060556;28;20497;-82
2021/05/16 08:23:54;;;;;;;4.95;2.83;;;15.00;99.90;;;;;;5061335;28;20438;-83
2021/05/16 08:26:20;;;;;;;7.05;2.83;;;15.30;99.90;;;;;;5060483;28;20095;-80
2021/05/16 08:28:46;;;;;;;6.43;2.70;;;15.40;99.90;;;;;;5063604;28;20045;-80
2021/05/16 08:31:14;;;;;;;6.20;3.00;;;15.40;99.90;;;;;;5062245;28;20049;-83
2021/05/16 08:33:40;;;;;;;10.00;3.13;;;15.30;99.90;;;;;;5063000;28;20072;-82
2021/05/16 08:36:06;;;;;;;6.82;3.10;;;15.30;99.90;;;;;;5061686;28;20076;-79
2021/05/16 08:38:34;;;;;;;6.35;3.20;;;15.70;99.90;;;;;;5061138;28;20136;-80
2021/05/16 08:41:01;;;;;;;7.60;3.70;;;16.50;99.90;;;;;;5061243;28;20055;-81
2021/05/16 08:43:27;;;;;;;7.40;3.72;;;17.30;99.90;;;;;;5061180;28;20112;-80
2021/05/16 08:45:54;;;;;;;7.07;3.58;;;18.00;99.90;;;;;;5061263;28;20130;-79
2021/05/16 08:48:22;;;;;;;10.27;3.70;;;18.30;99.90;;;;;;5060509;28;20132;-80
2021/05/16 08:50:49;;;;;;;10.57;3.88;;;18.70;99.90;;;;;;5061083;28;20055;-82
2021/05/16 08:53:15;;;;;;;11.77;4.22;;;19.00;99.90;;;;;;5062690;28;20056;-82
2021/05/16 08:55:41;;;;;;;11.65;3.95;;;18.60;99.90;;;;;;5062662;28;20110;-82
2021/05/16 08:58:08;;;;;;;8.52;3.70;;;18.10;99.90;;;;;;5062193;28;20147;-81
2021/05/16 09:00:43;;;;;;;14.07;4.15;;;18.10;99.90;;;;;;5060374;28;20111;-82
2021/05/16 09:03:12;;;;;;;10.95;4.07;;;18.50;99.90;;;;;;5062076;28;20091;-80
2021/05/16 09:05:41;;;;;;;10.95;4.05;;;18.20;99.90;;;;;;5060250;28;20524;-82
2021/05/16 09:08:12;;;;;;;12.48;4.07;;;18.20;99.90;;;;;;5062238;28;20127;-82
2021/05/16 09:10:40;;;;;;;10.17;3.33;;;18.50;99.90;;;;;;5063358;28;20053;-82
2021/05/16 09:13:07;;;;;;;13.30;4.28;;;18.70;99.90;;;;;;5061540;28;20081;-81
2021/05/16 09:15:34;;;;;;;9.15;3.72;;;19.10;99.90;;;;;;5059017;28;20127;-80
2021/05/16 09:18:00;;;;;;;10.45;3.75;;;19.50;99.90;;;;;;5059484;28;20091;-81
2021/05/16 09:20:27;;;;;;;8.73;3.13;;;19.70;99.90;;;;;;5059734;28;20128;-81
2021/05/16 09:22:54;;;;;;;9.45;3.58;;;19.80;99.90;;;;;;5058764;28;20060;-80
2021/05/16 09:25:24;;;;;;;9.23;3.80;;;20.00;99.90;;;;;;5059326;28;20136;-80
2021/05/16 09:27:52;;;;;;;11.70;3.70;;;20.10;99.90;;;;;;5059588;28;20452;-79
2021/05/16 09:30:30;;;;;;;9.52;4.05;;;20.60;99.90;;;;;;5058904;28;20087;-79
2021/05/16 09:32:59;;;;;;;10.27;3.28;;;21.00;99.90;;;;;;5058016;28;20059;-78
2021/05/16 09:35:43;;;;;;;8.88;3.63;;;20.80;99.90;;;;;;5059056;28;20543;-81
2021/05/16 09:38:13;;;;;;;9.25;3.78;;;20.40;99.90;;;;;;5053921;28;20084;-81
2021/05/16 09:40:42;;;;;;;9.45;3.78;;;19.60;99.90;;;;;;5078482;23;20044;-77
2021/05/16 09:43:13;;;;;;;11.15;3.63;;;19.00;99.90;;;;;;5065911;28;20135;-77
2021/05/16 09:46:00;;;;;;;8.35;3.53;;;18.40;99.90;;;;;;5073093;28;20098;-78
2021/05/16 09:48:32;;;;;;;6.45;3.28;;;17.90;99.90;;;;;;5073362;28;20159;-77
2021/05/16 09:51:17;;;;;;;16.88;10.05;;;17.60;99.90;;;;;;5056963;28;20063;-76
2021/05/16 09:53:50;;;;;;;6.30;3.13;;;17.50;99.90;;;;;;5053284;28;20398;-79
2021/05/16 09:56:19;;;;;;;7.57;3.22;;;17.10;99.90;;;;;;5053315;28;20132;-79
2021/05/16 09:58:46;;;;;;;7.63;3.13;;;17.10;99.90;;;;;;5053144;28;20453;-77
2021/05/16 10:01:14;;;;;;;11.25;3.45;;;17.20;99.90;;;;;;5053317;28;20127;-78
2021/05/16 10:03:41;;;;;;;7.40;2.95;;;16.90;99.90;;;;;;5052789;28;20045;-79
2021/05/16 10:06:08;;;;;;;7.90;3.15;;;16.80;99.90;;;;;;5053002;28;20045;-78
2021/05/16 10:08:35;;;;;;;8.32;3.50;;;16.80;99.90;;;;;;5053095;28;20145;-81
2021/05/16 10:11:03;;;;;;;8.00;3.00;;;16.80;99.90;;;;;;5052819;28;20045;-78
2021/05/16 10:13:34;;;;;;;8.40;4.07;;;17.00;99.90;;;;;;5053650;28;20131;-78
2021/05/16 10:16:02;;;;;;;9.02;3.60;;;17.10;99.90;;;;;;5052991;28;20128;-78
2021/05/16 10:18:31;;;;;;;10.48;3.38;;;17.40;99.90;;;;;;5049792;28;20167;-78
2021/05/16 10:20:59;;;;;;;8.90;3.28;;;17.70;99.90;;;;;;5052604;28;20148;-77
2021/05/16 10:23:33;;;;;;;15.38;4.57;;;17.80;99.90;;;;;;5050454;28;20148;-76
2021/05/16 10:26:18;;;;;;;6.63;3.28;;;17.70;99.90;;;;;;5052439;28;20045;-77
2021/05/16 10:28:57;;;;;;;9.90;3.45;;;17.60;99.90;;;;;;5052728;28;20045;-77
2021/05/16 10:31:44;;;;;;;9.90;3.38;;;17.50;99.90;;;;;;5050848;28;20072;-78
2021/05/16 10:34:44;;;;;;;8.68;3.70;;;17.70;99.90;;;;;;5053769;28;20102;-78
2021/05/16 10:37:46;;;;;;;12.60;3.80;;;17.70;99.90;;;;;;4974052;28;20043;-78
2021/05/16 10:40:29;;;;;;;8.48;3.47;;;17.70;99.90;;;;;;4974124;28;20054;-78
2021/05/16 10:42:58;;;;;;;6.57;2.78;;;17.90;99.90;;;;;;4973349;28;20137;-78
2021/05/16 10:45:32;;;;;;;7.22;3.05;;;17.90;99.90;;;;;;5012478;28;20141;-78
2021/05/16 10:48:07;;;;;;;6.95;2.70;;;17.70;99.90;;;;;;5047951;28;20045;-78
2021/05/16 10:51:00;;;;;;;6.57;3.13;;;17.60;99.90;;;;;;5050960;28;20131;-78
2021/05/16 10:53:36;;;;;;;10.05;3.88;;;17.60;99.90;;;;;;5054725;28;20485;-77
2021/05/16 10:56:20;;;;;;;6.90;3.05;;;17.80;99.90;;;;;;5061222;28;20081;-77
2021/05/16 10:58:49;;;;;;;6.68;2.85;;;18.00;99.90;;;;;;5072978;28;20083;-78
2021/05/16 11:01:17;;;;;;;7.45;2.92;;;18.10;99.90;;;;;;5066420;28;20045;-79
2021/05/16 11:03:45;;;;;;;6.57;3.55;;;18.20;99.90;;;;;;5061802;28;20692;-77
2021/05/16 11:06:12;;;;;;;7.13;3.05;;;18.30;99.90;;;;;;5058745;28;20428;-78
2021/05/16 11:09:11;;;;;;;9.10;3.15;;;18.40;99.90;;;;;;5057900;28;20083;-77
2021/05/16 11:11:55;;;;;;;9.25;3.47;;;18.30;99.90;;;;;;5053854;28;20535;-77
2021/05/16 11:14:27;;;;;;;10.05;3.30;;;18.40;99.90;;;;;;5053695;28;20394;-77
2021/05/16 11:16:56;;;;;;;9.90;3.13;;;18.50;99.90;;;;;;5052053;28;20088;-77
2021/05/16 11:19:29;;;;;;;7.18;3.28;;;18.50;99.90;;;;;;5051579;28;20053;-78
2021/05/16 11:21:56;;;;;;;9.13;3.72;;;18.60;99.90;;;;;;5051706;28;20049;-77
2021/05/16 11:24:50;;;;;;;6.65;3.10;;;18.80;99.90;;;;;;5052108;28;20191;-78
2021/05/16 11:27:22;;;;;;;11.05;3.30;;;19.00;99.90;;;;;;5052371;28;20455;-76
2021/05/16 11:29:58;;;;;;;6.55;2.95;;;19.10;99.90;;;;;;5052060;28;20466;-78
2021/05/16 11:32:30;;;;;;;6.82;3.15;;;18.90;99.90;;;;;;5055906;28;20100;-76
2021/05/16 11:35:08;;;;;;;10.30;3.28;;;18.90;99.90;;;;;;5051836;28;20124;-76
2021/05/16 11:37:35;;;;;;;6.88;2.92;;;18.90;99.90;;;;;;5043012;28;20666;-77
2021/05/16 11:40:19;;;;;;;6.60;3.13;;;19.20;99.90;;;;;;5051329;28;20135;-76
2021/05/16 11:42:46;;;;;;;7.97;3.60;;;19.20;99.90;;;;;;5051227;28;20049;-78
2021/05/16 11:45:17;;;;;;;8.38;3.10;;;18.80;99.90;;;;;;5051345;28;20136;-77
2021/05/16 11:47:45;;;;;;;8.43;2.80;;;18.70;99.90;;;;;;5052005;28;20140;-78
2021/05/16 11:50:13;;;;;;;10.60;3.40;;;18.80;99.90;;;;;;5055245;28;20076;-75
2021/05/16 11:52:39;;;;;;;7.82;3.20;;;19.00;99.90;;;;;;5055228;28;20118;-77
2021/05/16 11:55:08;;;;;;;7.85;2.97;;;19.20;99.90;;;;;;5054960;28;20095;-77
2021/05/16 11:57:35;;;;;;;7.15;3.03;;;19.20;99.90;;;;;;5054652;28;20504;-76
2021/05/16 12:00:07;;;;;;;6.53;2.53;;;19.00;99.90;;;;;;5055195;28;20056;-76
2021/05/16 12:02:36;;;;;;;5.97;3.08;;;19.10;99.90;;;;;;5055754;28;20135;-75
2021/05/16 12:05:02;;;;;;;6.72;2.90;;;19.20;99.90;;;;;;5054869;28;20136;-74
2021/05/16 12:07:29;;;;;;;6.00;2.33;;;19.30;99.90;;;;;;5054380;28;20080;-77
2021/05/16 12:09:55;;;;;;;5.80;2.10;;;19.50;99.90;;;;;;5054585;28;20053;-77
2021/05/16 12:12:25;;;;;;;2.95;1.75;;;19.60;99.90;;;;;;5054849;28;20049;-77
2021/05/16 12:14:55;;;;;;;1.88;0.90;;;19.80;99.90;;;;;;5054749;28;20505;-78
2021/05/16 12:17:28;;;;;;;3.08;1.45;;;19.70;99.90;;;;;;5054640;28;20472;-78
2021/05/16 12:20:03;;;;;;;2.45;1.35;;;19.70;99.90;;;;;;5055591;28;20135;-75
2021/05/16 12:22:35;;;;;;;3.97;1.65;;;19.80;99.90;;;;;;5057374;28;20067;-79
2021/05/16 12:25:02;;;;;;;2.77;1.33;;;19.80;99.90;;;;;;5055359;28;20175;-75
2021/05/16 12:27:28;;;;;;;3.88;2.47;;;19.90;99.90;;;;;;5053600;28;20363;-76
2021/05/16 12:29:58;;;;;;;3.38;1.90;;;20.20;99.90;;;;;;5055058;28;20072;-77
2021/05/16 12:32:31;;;;;;;3.75;1.40;;;20.40;99.90;;;;;;5056525;28;20041;-78
2021/05/16 12:34:58;;;;;;;9.02;2.50;;;20.70;99.90;;;;;;5057560;28;20045;-78
2021/05/16 12:37:32;;;;;;;3.85;1.73;;;20.70;99.90;;;;;;5058065;28;20128;-79
2021/05/16 12:40:09;;;;;;;6.55;2.63;;;20.80;99.90;;;;;;5056495;28;20109;-78
2021/05/16 12:42:39;;;;;;;5.07;2.50;;;20.70;99.90;;;;;;5057397;28;20075;-78
2021/05/16 12:45:18;;;;;;;5.90;2.67;;;20.60;99.90;;;;;;5058425;28;20485;-79
2021/05/16 12:48:01;;;;;;;4.97;1.98;;;20.30;99.90;;;;;;5057726;28;20889;-79
2021/05/16 12:50:34;;;;;;;4.43;2.17;;;20.10;99.90;;;;;;5060456;28;20041;-78